sensor_id;sensor_type;location;lat;lon;timestamp;temperature;humidity
44166;DHT22;30476;53.468;9.826;2023-07-31T00:00:17;16.90;99.90
44166;DHT22;30476;53.468;9.826;2023-07-31T00:02:42;16.90;99.90
44166;DHT22;30476;53.468;9.826;2023-07-31T00:05:09;16.90;99.90
44166;DHT22;30476;53.468;9.826;2023-07-31T00:07:35;17.00;99.90
44166;DHT22;30476;53.468;9.826;2023-07-31T00:10:01;16.90;99.90
44166;DHT22;30476;53.468;9.826;2023-07-31T00:12:27;16.90;99.90
44166;DHT22;30476;53.468;9.826;2023-07-31T00:14:52;16.90;99.90
44166;DHT22;30476;53.468;9.826;2023-07-31T00:17:18;16.90;99.90
44166;DHT22;30476;53.468;9.826;2023-07-31T00:19:44;16.90;99.90
44166;DHT22;30476;53.468;9.826;2023-07-31T00:22:12;16.90;99.90
44166;DHT22;30476;53.468;9.826;2023-07-31T00:24:37;16.90;99.90
44166;DHT22;30476;53.468;9.826;2023-07-31T00:27:04;16.80;99.90
44166;DHT22;30476;53.468;9.826;2023-07-31T00:29:30;16.80;99.90
44166;DHT22;30476;53.468;9.826;2023-07-31T00:31:56;16.80;99.90
44166;DHT22;30476;53.468;9.826;2023-07-31T00:34:22;16.90;99.90
44166;DHT22;30476;53.468;9.826;2023-07-31T00:36:47;16.80;99.90
44166;DHT22;30476;53.468;9.826;2023-07-31T00:39:13;16.80;99.90
44166;DHT22;30476;53.468;9.826;2023-07-31T00:41:39;16.80;99.90
44166;DHT22;30476;53.468;9.826;2023-07-31T00:44:05;16.90;99.90
44166;DHT22;30476;53.468;9.826;2023-07-31T00:46:31;16.90;99.90
44166;DHT22;30476;53.468;9.826;2023-07-31T00:48:57;16.80;99.90
44166;DHT22;30476;53.468;9.826;2023-07-31T00:51:22;16.80;99.90
44166;DHT22;30476;53.468;9.826;2023-07-31T00:53:48;16.80;99.90
44166;DHT22;30476;53.468;9.826;2023-07-31T00:56:15;16.80;99.90
44166;DHT22;30476;53.468;9.826;2023-07-31T00:58:41;16.90;99.90
44166;DHT22;30476;53.468;9.826;2023-07-31T01:01:07;16.80;99.90
44166;DHT22;30476;53.468;9.826;2023-07-31T01:03:33;16.80;99.90
44166;DHT22;30476;53.468;9.826;2023-07-31T01:09:04;16.80;99.90
44166;DHT22;30476;53.468;9.826;2023-07-31T01:11:35;16.80;99.90
44166;DHT22;30476;53.468;9.826;2023-07-31T01:14:03;16.80;99.90
44166;DHT22;30476;53.468;9.826;2023-07-31T01:16:29;16.80;99.90
44166;DHT22;30476;53.468;9.826;2023-07-31T01:18:55;16.80;99.90
44166;DHT22;30476;53.468;9.826;2023-07-31T01:21:50;16.80;99.90
44166;DHT22;30476;53.468;9.826;2023-07-31T01:26:46;16.70;99.90
44166;DHT22;30476;53.468;9.826;2023-07-31T01:29:20;16.80;99.90
44166;DHT22;30476;53.468;9.826;2023-07-31T01:31:50;16.80;99.90
44166;DHT22;30476;53.468;9.826;2023-07-31T01:34:17;16.70;99.90
44166;DHT22;30476;53.468;9.826;2023-07-31T01:36:44;16.70;99.90
44166;DHT22;30476;53.468;9.826;2023-07-31T01:39:09;16.80;99.90
44166;DHT22;30476;53.468;9.826;2023-07-31T01:41:35;16.80;99.90
44166;DHT22;30476;53.468;9.826;2023-07-31T01:44:01;16.80;99.90
44166;DHT22;30476;53.468;9.826;2023-07-31T01:46:26;16.80;99.90
44166;DHT22;30476;53.468;9.826;2023-07-31T01:48:52;16.80;99.90
44166;DHT22;30476;53.468;9.826;2023-07-31T01:51:18;16.80;99.90
44166;DHT22;30476;53.468;9.826;2023-07-31T01:53:44;16.80;99.90
44166;DHT22;30476;53.468;9.826;2023-07-31T01:56:10;16.90;99.90
44166;DHT22;30476;53.468;9.826;2023-07-31T01:58:35;16.90;99.90
44166;DHT22;30476;53.468;9.826;2023-07-31T02:01:01;16.80;99.90
44166;DHT22;30476;53.468;9.826;2023-07-31T02:03:27;16.90;99.90
44166;DHT22;30476;53.468;9.826;2023-07-31T02:05:54;16.90;99.90
44166;DHT22;30476;53.468;9.826;2023-07-31T02:08:20;16.90;99.90
44166;DHT22;30476;53.468;9.826;2023-07-31T02:10:45;16.90;99.90
44166;DHT22;30476;53.468;9.826;2023-07-31T02:13:11;16.90;99.90
44166;DHT22;30476;53.468;9.826;2023-07-31T02:15:37;16.90;99.90
44166;DHT22;30476;53.468;9.826;2023-07-31T02:18:03;16.90;99.90
44166;DHT22;30476;53.468;9.826;2023-07-31T02:20:28;16.90;99.90
44166;DHT22;30476;53.468;9.826;2023-07-31T02:22:54;16.90;99.90
44166;DHT22;30476;53.468;9.826;2023-07-31T02:25:20;16.90;99.90
44166;DHT22;30476;53.468;9.826;2023-07-31T02:27:46;16.90;99.90
44166;DHT22;30476;53.468;9.826;2023-07-31T02:30:11;16.90;99.90
44166;DHT22;30476;53.468;9.826;2023-07-31T02:32:37;16.90;99.90
44166;DHT22;30476;53.468;9.826;2023-07-31T02:35:03;16.90;99.90
44166;DHT22;30476;53.468;9.826;2023-07-31T02:37:29;16.90;99.90
44166;DHT22;30476;53.468;9.826;2023-07-31T02:39:55;16.90;99.90
44166;DHT22;30476;53.468;9.826;2023-07-31T02:42:21;16.90;99.90
44166;DHT22;30476;53.468;9.826;2023-07-31T02:44:47;16.90;99.90
44166;DHT22;30476;53.468;9.826;2023-07-31T02:47:12;16.90;99.90
44166;DHT22;30476;53.468;9.826;2023-07-31T02:49:38;16.90;99.90
44166;DHT22;30476;53.468;9.826;2023-07-31T02:52:04;16.90;99.90
44166;DHT22;30476;53.468;9.826;2023-07-31T02:54:30;16.90;99.90
44166;DHT22;30476;53.468;9.826;2023-07-31T02:56:56;16.90;99.90
44166;DHT22;30476;53.468;9.826;2023-07-31T02:59:21;16.90;99.90
44166;DHT22;30476;53.468;9.826;2023-07-31T03:01:47;16.90;99.90
44166;DHT22;30476;53.468;9.826;2023-07-31T03:04:13;16.90;99.90
44166;DHT22;30476;53.468;9.826;2023-07-31T03:06:39;16.90;99.90
44166;DHT22;30476;53.468;9.826;2023-07-31T03:09:04;16.90;99.90
44166;DHT22;30476;53.468;9.826;2023-07-31T03:11:30;16.90;99.90
44166;DHT22;30476;53.468;9.826;2023-07-31T03:13:56;16.90;99.90
44166;DHT22;30476;53.468;9.826;2023-07-31T03:16:22;17.00;99.90
44166;DHT22;30476;53.468;9.826;2023-07-31T03:18:47;17.00;99.90
44166;DHT22;30476;53.468;9.826;2023-07-31T03:21:14;17.00;99.90
44166;DHT22;30476;53.468;9.826;2023-07-31T03:23:40;17.00;99.90
44166;DHT22;30476;53.468;9.826;2023-07-31T03:26:07;17.00;99.90
44166;DHT22;30476;53.468;9.826;2023-07-31T03:28:33;17.00;99.90
44166;DHT22;30476;53.468;9.826;2023-07-31T03:30:58;17.00;99.90
44166;DHT22;30476;53.468;9.826;2023-07-31T03:33:25;17.00;99.90
44166;DHT22;30476;53.468;9.826;2023-07-31T03:35:51;17.00;99.90
44166;DHT22;30476;53.468;9.826;2023-07-31T03:38:18;17.00;99.90
44166;DHT22;30476;53.468;9.826;2023-07-31T03:40:43;17.00;99.90
44166;DHT22;30476;53.468;9.826;2023-07-31T03:43:09;17.00;99.90
44166;DHT22;30476;53.468;9.826;2023-07-31T03:45:35;17.00;99.90
44166;DHT22;30476;53.468;9.826;2023-07-31T03:48:01;17.00;99.90
44166;DHT22;30476;53.468;9.826;2023-07-31T03:50:27;16.90;99.90
44166;DHT22;30476;53.468;9.826;2023-07-31T03:52:52;17.00;99.90
44166;DHT22;30476;53.468;9.826;2023-07-31T03:55:18;17.00;99.90
44166;DHT22;30476;53.468;9.826;2023-07-31T03:57:44;17.00;99.90
44166;DHT22;30476;53.468;9.826;2023-07-31T04:00:10;17.10;99.90
44166;DHT22;30476;53.468;9.826;2023-07-31T04:02:36;17.10;99.90
44166;DHT22;30476;53.468;9.826;2023-07-31T04:05:02;17.00;99.90
44166;DHT22;30476;53.468;9.826;2023-07-31T04:07:28;17.00;99.90
44166;DHT22;30476;53.468;9.826;2023-07-31T04:09:53;17.10;99.90
44166;DHT22;30476;53.468;9.826;2023-07-31T04:12:19;17.10;99.90
44166;DHT22;30476;53.468;9.826;2023-07-31T04:14:45;17.10;99.90
44166;DHT22;30476;53.468;9.826;2023-07-31T04:17:11;17.10;99.90
44166;DHT22;30476;53.468;9.826;2023-07-31T04:19:36;17.10;99.90
44166;DHT22;30476;53.468;9.826;2023-07-31T04:22:03;17.10;99.90
44166;DHT22;30476;53.468;9.826;2023-07-31T04:24:29;17.10;99.90
44166;DHT22;30476;53.468;9.826;2023-07-31T04:26:55;17.10;99.90
44166;DHT22;30476;53.468;9.826;2023-07-31T04:29:21;17.10;99.90
44166;DHT22;30476;53.468;9.826;2023-07-31T04:31:48;17.20;99.90
44166;DHT22;30476;53.468;9.826;2023-07-31T04:34:13;17.10;99.90
44166;DHT22;30476;53.468;9.826;2023-07-31T04:36:39;17.20;99.90
44166;DHT22;30476;53.468;9.826;2023-07-31T04:39:05;17.20;99.90
44166;DHT22;30476;53.468;9.826;2023-07-31T04:41:31;17.20;99.90
44166;DHT22;30476;53.468;9.826;2023-07-31T04:43:57;17.10;99.90
44166;DHT22;30476;53.468;9.826;2023-07-31T04:46:23;17.10;99.90
44166;DHT22;30476;53.468;9.826;2023-07-31T04:48:48;17.20;99.90
44166;DHT22;30476;53.468;9.826;2023-07-31T04:51:14;17.10;99.90
44166;DHT22;30476;53.468;9.826;2023-07-31T04:53:41;17.10;99.90
44166;DHT22;30476;53.468;9.826;2023-07-31T04:56:06;17.00;99.90
44166;DHT22;30476;53.468;9.826;2023-07-31T04:58:32;17.00;99.90
44166;DHT22;30476;53.468;9.826;2023-07-31T05:00:58;17.00;99.90
44166;DHT22;30476;53.468;9.826;2023-07-31T05:03:24;16.90;99.90
44166;DHT22;30476;53.468;9.826;2023-07-31T05:05:50;17.00;99.90
44166;DHT22;30476;53.468;9.826;2023-07-31T05:08:16;17.00;99.90
44166;DHT22;30476;53.468;9.826;2023-07-31T05:10:43;17.00;99.90
44166;DHT22;30476;53.468;9.826;2023-07-31T05:13:09;16.90;99.90
44166;DHT22;30476;53.468;9.826;2023-07-31T05:15:35;16.90;99.90
44166;DHT22;30476;53.468;9.826;2023-07-31T05:18:00;16.90;99.90
44166;DHT22;30476;53.468;9.826;2023-07-31T05:20:26;17.00;99.90
44166;DHT22;30476;53.468;9.826;2023-07-31T05:22:53;17.00;99.90
44166;DHT22;30476;53.468;9.826;2023-07-31T05:25:19;17.00;99.90
44166;DHT22;30476;53.468;9.826;2023-07-31T05:27:45;17.00;99.90
44166;DHT22;30476;53.468;9.826;2023-07-31T05:30:11;17.00;99.90
44166;DHT22;30476;53.468;9.826;2023-07-31T05:32:36;17.00;99.90
44166;DHT22;30476;53.468;9.826;2023-07-31T05:35:02;17.00;99.90
44166;DHT22;30476;53.468;9.826;2023-07-31T05:37:28;17.00;99.90
44166;DHT22;30476;53.468;9.826;2023-07-31T05:39:54;17.00;99.90
44166;DHT22;30476;53.468;9.826;2023-07-31T05:42:20;17.10;99.90
44166;DHT22;30476;53.468;9.826;2023-07-31T05:44:45;17.10;99.90
44166;DHT22;30476;53.468;9.826;2023-07-31T05:47:12;17.10;99.90
44166;DHT22;30476;53.468;9.826;2023-07-31T05:49:38;17.10;99.90
44166;DHT22;30476;53.468;9.826;2023-07-31T05:52:04;17.10;99.90
44166;DHT22;30476;53.468;9.826;2023-07-31T05:54:31;17.10;99.90
44166;DHT22;30476;53.468;9.826;2023-07-31T05:56:57;17.10;99.90
44166;DHT22;30476;53.468;9.826;2023-07-31T05:59:22;17.10;99.90
44166;DHT22;30476;53.468;9.826;2023-07-31T06:01:48;17.20;99.90
44166;DHT22;30476;53.468;9.826;2023-07-31T06:04:14;17.10;99.90
44166;DHT22;30476;53.468;9.826;2023-07-31T06:06:40;17.20;99.90
44166;DHT22;30476;53.468;9.826;2023-07-31T06:09:06;17.20;99.90
44166;DHT22;30476;53.468;9.826;2023-07-31T06:11:32;17.20;99.90
44166;DHT22;30476;53.468;9.826;2023-07-31T06:13:58;17.20;99.90
44166;DHT22;30476;53.468;9.826;2023-07-31T06:16:25;17.20;99.90
44166;DHT22;30476;53.468;9.826;2023-07-31T06:18:52;17.30;99.90
44166;DHT22;30476;53.468;9.826;2023-07-31T06:21:18;17.30;99.90
44166;DHT22;30476;53.468;9.826;2023-07-31T06:23:44;17.30;99.90
44166;DHT22;30476;53.468;9.826;2023-07-31T06:26:09;17.30;99.90
44166;DHT22;30476;53.468;9.826;2023-07-31T06:28:35;17.30;99.90
44166;DHT22;30476;53.468;9.826;2023-07-31T06:31:01;17.30;99.90
44166;DHT22;30476;53.468;9.826;2023-07-31T06:33:27;17.40;99.90
44166;DHT22;30476;53.468;9.826;2023-07-31T06:35:53;17.40;99.90
44166;DHT22;30476;53.468;9.826;2023-07-31T06:38:24;17.40;99.90
44166;DHT22;30476;53.468;9.826;2023-07-31T06:40:50;17.40;99.90
44166;DHT22;30476;53.468;9.826;2023-07-31T06:43:16;17.40;99.90
44166;DHT22;30476;53.468;9.826;2023-07-31T06:45:41;17.40;99.90
44166;DHT22;30476;53.468;9.826;2023-07-31T06:48:07;17.50;99.90
44166;DHT22;30476;53.468;9.826;2023-07-31T06:50:33;17.50;99.90
44166;DHT22;30476;53.468;9.826;2023-07-31T06:52:59;17.50;99.90
44166;DHT22;30476;53.468;9.826;2023-07-31T06:55:26;17.50;99.90
44166;DHT22;30476;53.468;9.826;2023-07-31T06:57:53;17.50;99.90
44166;DHT22;30476;53.468;9.826;2023-07-31T07:00:20;17.50;99.90
44166;DHT22;30476;53.468;9.826;2023-07-31T07:02:46;17.60;99.90
44166;DHT22;30476;53.468;9.826;2023-07-31T07:05:16;17.60;99.90
44166;DHT22;30476;53.468;9.826;2023-07-31T07:07:42;17.60;99.90
44166;DHT22;30476;53.468;9.826;2023-07-31T07:10:08;17.60;99.90
44166;DHT22;30476;53.468;9.826;2023-07-31T07:12:35;17.60;99.90
44166;DHT22;30476;53.468;9.826;2023-07-31T07:15:01;17.60;99.90
44166;DHT22;30476;53.468;9.826;2023-07-31T07:17:28;17.60;99.90
44166;DHT22;30476;53.468;9.826;2023-07-31T07:19:57;17.60;99.90
44166;DHT22;30476;53.468;9.826;2023-07-31T07:22:23;17.60;99.90
44166;DHT22;30476;53.468;9.826;2023-07-31T07:24:49;17.60;99.90
44166;DHT22;30476;53.468;9.826;2023-07-31T07:27:14;17.60;99.90
44166;DHT22;30476;53.468;9.826;2023-07-31T07:29:40;17.70;99.90
44166;DHT22;30476;53.468;9.826;2023-07-31T07:32:06;17.70;99.90
44166;DHT22;30476;53.468;9.826;2023-07-31T07:34:32;17.70;99.90
44166;DHT22;30476;53.468;9.826;2023-07-31T07:36:58;17.70;99.90
44166;DHT22;30476;53.468;9.826;2023-07-31T07:39:24;17.80;99.90
44166;DHT22;30476;53.468;9.826;2023-07-31T07:41:50;17.80;99.90
44166;DHT22;30476;53.468;9.826;2023-07-31T07:44:16;17.80;99.90
44166;DHT22;30476;53.468;9.826;2023-07-31T07:46:42;17.90;99.90
44166;DHT22;30476;53.468;9.826;2023-07-31T07:49:07;17.90;99.90
44166;DHT22;30476;53.468;9.826;2023-07-31T07:51:33;17.90;99.90
44166;DHT22;30476;53.468;9.826;2023-07-31T07:53:59;18.00;99.90
44166;DHT22;30476;53.468;9.826;2023-07-31T07:56:26;18.00;99.90
44166;DHT22;30476;53.468;9.826;2023-07-31T07:58:52;18.10;99.90
44166;DHT22;30476;53.468;9.826;2023-07-31T08:01:19;18.00;99.90
44166;DHT22;30476;53.468;9.826;2023-07-31T08:03:45;18.00;99.90
44166;DHT22;30476;53.468;9.826;2023-07-31T08:06:10;18.10;99.90
44166;DHT22;30476;53.468;9.826;2023-07-31T08:08:37;18.20;99.90
44166;DHT22;30476;53.468;9.826;2023-07-31T08:11:03;18.20;99.90
44166;DHT22;30476;53.468;9.826;2023-07-31T08:13:29;18.20;99.90
44166;DHT22;30476;53.468;9.826;2023-07-31T08:15:55;18.20;99.90
44166;DHT22;30476;53.468;9.826;2023-07-31T08:18:21;18.30;99.90
44166;DHT22;30476;53.468;9.826;2023-07-31T08:20:47;18.30;99.90
44166;DHT22;30476;53.468;9.826;2023-07-31T08:23:13;18.30;99.90
44166;DHT22;30476;53.468;9.826;2023-07-31T08:25:39;18.30;99.90
44166;DHT22;30476;53.468;9.826;2023-07-31T08:28:05;18.40;99.90
44166;DHT22;30476;53.468;9.826;2023-07-31T08:30:32;18.40;99.90
44166;DHT22;30476;53.468;9.826;2023-07-31T08:32:59;18.40;99.90
44166;DHT22;30476;53.468;9.826;2023-07-31T08:35:25;18.40;99.90
44166;DHT22;30476;53.468;9.826;2023-07-31T08:37:51;18.40;99.90
44166;DHT22;30476;53.468;9.826;2023-07-31T08:40:17;18.40;99.90
44166;DHT22;30476;53.468;9.826;2023-07-31T08:42:44;18.40;99.90
44166;DHT22;30476;53.468;9.826;2023-07-31T08:45:14;18.50;99.90
44166;DHT22;30476;53.468;9.826;2023-07-31T08:47:42;18.50;99.90
44166;DHT22;30476;53.468;9.826;2023-07-31T08:50:08;18.50;99.90
44166;DHT22;30476;53.468;9.826;2023-07-31T08:52:34;18.60;99.90
44166;DHT22;30476;53.468;9.826;2023-07-31T08:54:59;18.60;99.90
44166;DHT22;30476;53.468;9.826;2023-07-31T08:57:25;18.60;99.90
44166;DHT22;30476;53.468;9.826;2023-07-31T08:59:51;18.60;99.90
44166;DHT22;30476;53.468;9.826;2023-07-31T09:02:18;18.70;99.90
44166;DHT22;30476;53.468;9.826;2023-07-31T09:04:45;18.70;99.90
44166;DHT22;30476;53.468;9.826;2023-07-31T09:07:12;18.80;99.90
44166;DHT22;30476;53.468;9.826;2023-07-31T09:09:39;18.80;99.90
44166;DHT22;30476;53.468;9.826;2023-07-31T09:12:05;18.80;99.90
44166;DHT22;30476;53.468;9.826;2023-07-31T09:14:32;18.80;99.90
44166;DHT22;30476;53.468;9.826;2023-07-31T09:16:59;18.90;99.90
44166;DHT22;30476;53.468;9.826;2023-07-31T09:19:33;18.90;99.90
44166;DHT22;30476;53.468;9.826;2023-07-31T09:22:00;18.90;99.90
44166;DHT22;30476;53.468;9.826;2023-07-31T09:24:27;18.90;99.90
44166;DHT22;30476;53.468;9.826;2023-07-31T09:26:57;18.90;99.90
44166;DHT22;30476;53.468;9.826;2023-07-31T09:29:24;18.90;99.90
44166;DHT22;30476;53.468;9.826;2023-07-31T09:31:52;18.90;99.90
44166;DHT22;30476;53.468;9.826;2023-07-31T09:34:19;18.90;99.90
44166;DHT22;30476;53.468;9.826;2023-07-31T09:36:47;18.90;99.90
44166;DHT22;30476;53.468;9.826;2023-07-31T09:39:14;19.00;99.90
44166;DHT22;30476;53.468;9.826;2023-07-31T09:41:43;19.00;99.90
44166;DHT22;30476;53.468;9.826;2023-07-31T09:44:09;19.00;99.90
44166;DHT22;30476;53.468;9.826;2023-07-31T09:46:36;19.00;99.90
44166;DHT22;30476;53.468;9.826;2023-07-31T09:49:12;19.00;99.90
44166;DHT22;30476;53.468;9.826;2023-07-31T09:51:40;19.00;99.90
44166;DHT22;30476;53.468;9.826;2023-07-31T09:54:14;19.00;99.90
44166;DHT22;30476;53.468;9.826;2023-07-31T09:56:45;19.00;99.90
44166;DHT22;30476;53.468;9.826;2023-07-31T09:59:12;19.00;99.90
44166;DHT22;30476;53.468;9.826;2023-07-31T10:01:40;19.00;99.90
44166;DHT22;30476;53.468;9.826;2023-07-31T10:04:08;19.00;99.90
44166;DHT22;30476;53.468;9.826;2023-07-31T10:06:35;19.00;99.90
44166;DHT22;30476;53.468;9.826;2023-07-31T10:09:03;19.00;99.90
44166;DHT22;30476;53.468;9.826;2023-07-31T10:11:34;19.00;99.90
44166;DHT22;30476;53.468;9.826;2023-07-31T10:14:01;19.00;99.90
44166;DHT22;30476;53.468;9.826;2023-07-31T10:16:27;19.10;99.90
44166;DHT22;30476;53.468;9.826;2023-07-31T10:18:54;19.00;99.90
44166;DHT22;30476;53.468;9.826;2023-07-31T10:21:20;19.00;99.90
44166;DHT22;30476;53.468;9.826;2023-07-31T10:23:46;19.00;99.90
44166;DHT22;30476;53.468;9.826;2023-07-31T10:26:14;19.00;99.90
44166;DHT22;30476;53.468;9.826;2023-07-31T10:28:40;19.00;99.90
44166;DHT22;30476;53.468;9.826;2023-07-31T10:31:06;19.00;99.90
44166;DHT22;30476;53.468;9.826;2023-07-31T10:33:33;18.90;99.90
44166;DHT22;30476;53.468;9.826;2023-07-31T10:36:17;19.00;99.90
44166;DHT22;30476;53.468;9.826;2023-07-31T10:38:43;19.00;99.90
44166;DHT22;30476;53.468;9.826;2023-07-31T10:41:10;19.00;99.90
44166;DHT22;30476;53.468;9.826;2023-07-31T10:43:39;18.90;99.90
44166;DHT22;30476;53.468;9.826;2023-07-31T10:46:09;18.90;99.90
44166;DHT22;30476;53.468;9.826;2023-07-31T10:48:39;19.00;99.90
44166;DHT22;30476;53.468;9.826;2023-07-31T10:51:11;19.00;99.90
44166;DHT22;30476;53.468;9.826;2023-07-31T10:53:42;19.00;99.90
44166;DHT22;30476;53.468;9.826;2023-07-31T10:56:09;19.00;99.90
44166;DHT22;30476;53.468;9.826;2023-07-31T10:58:38;19.00;99.90
44166;DHT22;30476;53.468;9.826;2023-07-31T11:01:05;19.10;99.90
44166;DHT22;30476;53.468;9.826;2023-07-31T11:03:50;19.10;99.90
44166;DHT22;30476;53.468;9.826;2023-07-31T11:06:18;19.10;99.90
44166;DHT22;30476;53.468;9.826;2023-07-31T11:08:50;19.10;99.90
44166;DHT22;30476;53.468;9.826;2023-07-31T11:11:18;19.10;99.90
44166;DHT22;30476;53.468;9.826;2023-07-31T11:13:52;19.10;99.90
44166;DHT22;30476;53.468;9.826;2023-07-31T11:16:23;19.20;99.90
44166;DHT22;30476;53.468;9.826;2023-07-31T11:18:50;19.10;99.90
44166;DHT22;30476;53.468;9.826;2023-07-31T11:21:24;19.10;99.90
44166;DHT22;30476;53.468;9.826;2023-07-31T11:23:51;19.10;99.90
44166;DHT22;30476;53.468;9.826;2023-07-31T11:26:18;19.20;99.90
44166;DHT22;30476;53.468;9.826;2023-07-31T11:28:47;19.20;99.90
44166;DHT22;30476;53.468;9.826;2023-07-31T11:31:13;19.10;99.90
44166;DHT22;30476;53.468;9.826;2023-07-31T11:33:39;19.20;99.90
44166;DHT22;30476;53.468;9.826;2023-07-31T11:36:04;19.10;99.90
44166;DHT22;30476;53.468;9.826;2023-07-31T11:38:32;19.20;99.90
44166;DHT22;30476;53.468;9.826;2023-07-31T11:41:01;19.20;99.90
44166;DHT22;30476;53.468;9.826;2023-07-31T11:43:33;19.10;99.90
44166;DHT22;30476;53.468;9.826;2023-07-31T11:46:00;19.10;99.90
44166;DHT22;30476;53.468;9.826;2023-07-31T11:48:30;19.20;99.90
44166;DHT22;30476;53.468;9.826;2023-07-31T11:51:00;19.20;99.90
44166;DHT22;30476;53.468;9.826;2023-07-31T11:53:41;19.20;99.90
44166;DHT22;30476;53.468;9.826;2023-07-31T11:56:11;19.20;99.90
44166;DHT22;30476;53.468;9.826;2023-07-31T11:58:38;19.20;99.90
44166;DHT22;30476;53.468;9.826;2023-07-31T12:01:05;19.20;99.90
44166;DHT22;30476;53.468;9.826;2023-07-31T12:03:32;19.20;99.90
44166;DHT22;30476;53.468;9.826;2023-07-31T12:05:58;19.20;99.90
44166;DHT22;30476;53.468;9.826;2023-07-31T12:08:25;19.20;99.90
44166;DHT22;30476;53.468;9.826;2023-07-31T12:10:52;19.20;99.90
44166;DHT22;30476;53.468;9.826;2023-07-31T12:13:26;19.30;99.90
44166;DHT22;30476;53.468;9.826;2023-07-31T12:15:55;19.20;99.90
44166;DHT22;30476;53.468;9.826;2023-07-31T12:18:25;19.30;99.90
44166;DHT22;30476;53.468;9.826;2023-07-31T12:23:22;19.30;99.90
44166;DHT22;30476;53.468;9.826;2023-07-31T12:26:15;19.30;99.90
44166;DHT22;30476;53.468;9.826;2023-07-31T12:28:45;19.30;99.90
44166;DHT22;30476;53.468;9.826;2023-07-31T12:31:20;19.30;99.90
44166;DHT22;30476;53.468;9.826;2023-07-31T12:33:47;19.30;99.90
44166;DHT22;30476;53.468;9.826;2023-07-31T12:36:16;19.40;99.90
44166;DHT22;30476;53.468;9.826;2023-07-31T12:38:42;19.30;99.90
44166;DHT22;30476;53.468;9.826;2023-07-31T12:41:09;19.40;99.90
44166;DHT22;30476;53.468;9.826;2023-07-31T12:43:36;19.40;99.90
44166;DHT22;30476;53.468;9.826;2023-07-31T12:46:02;19.40;99.90
44166;DHT22;30476;53.468;9.826;2023-07-31T12:48:29;19.50;99.90
44166;DHT22;30476;53.468;9.826;2023-07-31T12:50:55;19.50;99.90
44166;DHT22;30476;53.468;9.826;2023-07-31T12:53:20;19.50;99.90
44166;DHT22;30476;53.468;9.826;2023-07-31T12:55:46;19.50;99.90
44166;DHT22;30476;53.468;9.826;2023-07-31T12:58:12;19.50;99.90
44166;DHT22;30476;53.468;9.826;2023-07-31T13:00:38;19.60;99.90
44166;DHT22;30476;53.468;9.826;2023-07-31T13:03:04;19.60;99.90
44166;DHT22;30476;53.468;9.826;2023-07-31T13:05:30;19.60;99.90
44166;DHT22;30476;53.468;9.826;2023-07-31T13:07:56;19.60;99.90
44166;DHT22;30476;53.468;9.826;2023-07-31T13:10:23;19.60;99.90
44166;DHT22;30476;53.468;9.826;2023-07-31T13:12:49;19.60;99.90
44166;DHT22;30476;53.468;9.826;2023-07-31T13:15:14;19.70;99.90
44166;DHT22;30476;53.468;9.826;2023-07-31T13:17:40;19.70;99.90
44166;DHT22;30476;53.468;9.826;2023-07-31T13:20:07;19.70;99.90
44166;DHT22;30476;53.468;9.826;2023-07-31T13:22:33;19.70;99.90
44166;DHT22;30476;53.468;9.826;2023-07-31T13:24:58;19.70;99.90
44166;DHT22;30476;53.468;9.826;2023-07-31T13:27:24;19.60;99.90
44166;DHT22;30476;53.468;9.826;2023-07-31T13:29:51;19.70;99.90
44166;DHT22;30476;53.468;9.826;2023-07-31T13:32:18;19.70;99.90
44166;DHT22;30476;53.468;9.826;2023-07-31T13:34:44;19.70;99.90
44166;DHT22;30476;53.468;9.826;2023-07-31T13:37:10;19.70;99.90
44166;DHT22;30476;53.468;9.826;2023-07-31T13:39:36;19.80;99.90
44166;DHT22;30476;53.468;9.826;2023-07-31T13:42:03;19.80;99.90
44166;DHT22;30476;53.468;9.826;2023-07-31T13:44:29;19.90;99.90
44166;DHT22;30476;53.468;9.826;2023-07-31T13:46:54;19.90;99.90
44166;DHT22;30476;53.468;9.826;2023-07-31T13:49:20;19.90;99.90
44166;DHT22;30476;53.468;9.826;2023-07-31T13:51:46;19.90;99.90
44166;DHT22;30476;53.468;9.826;2023-07-31T13:54:12;19.90;99.90
44166;DHT22;30476;53.468;9.826;2023-07-31T13:56:38;19.90;99.90
44166;DHT22;30476;53.468;9.826;2023-07-31T13:59:04;20.00;99.90
44166;DHT22;30476;53.468;9.826;2023-07-31T14:01:30;20.00;99.90
44166;DHT22;30476;53.468;9.826;2023-07-31T14:03:56;20.00;99.90
44166;DHT22;30476;53.468;9.826;2023-07-31T14:06:22;20.10;99.90
44166;DHT22;30476;53.468;9.826;2023-07-31T14:08:47;20.00;99.90
44166;DHT22;30476;53.468;9.826;2023-07-31T14:11:13;20.00;99.90
44166;DHT22;30476;53.468;9.826;2023-07-31T14:13:39;20.00;99.90
44166;DHT22;30476;53.468;9.826;2023-07-31T14:16:05;20.00;99.90
44166;DHT22;30476;53.468;9.826;2023-07-31T14:18:30;20.00;99.90
44166;DHT22;30476;53.468;9.826;2023-07-31T14:20:56;20.00;99.90
44166;DHT22;30476;53.468;9.826;2023-07-31T14:23:22;20.00;99.90
44166;DHT22;30476;53.468;9.826;2023-07-31T14:25:48;20.00;99.90
44166;DHT22;30476;53.468;9.826;2023-07-31T14:28:13;20.00;99.90
44166;DHT22;30476;53.468;9.826;2023-07-31T14:30:39;20.00;99.90
44166;DHT22;30476;53.468;9.826;2023-07-31T14:33:05;20.00;99.90
44166;DHT22;30476;53.468;9.826;2023-07-31T14:35:31;20.00;99.90
44166;DHT22;30476;53.468;9.826;2023-07-31T14:37:57;20.00;99.90
44166;DHT22;30476;53.468;9.826;2023-07-31T14:40:22;20.00;99.90
44166;DHT22;30476;53.468;9.826;2023-07-31T14:42:48;19.90;99.90
44166;DHT22;30476;53.468;9.826;2023-07-31T14:45:14;19.90;99.90
44166;DHT22;30476;53.468;9.826;2023-07-31T14:47:40;19.90;99.90
44166;DHT22;30476;53.468;9.826;2023-07-31T14:50:06;19.90;99.90
44166;DHT22;30476;53.468;9.826;2023-07-31T14:52:32;19.90;99.90
44166;DHT22;30476;53.468;9.826;2023-07-31T14:54:58;19.90;99.90
44166;DHT22;30476;53.468;9.826;2023-07-31T14:57:23;19.90;99.90
44166;DHT22;30476;53.468;9.826;2023-07-31T14:59:49;19.90;99.90
44166;DHT22;30476;53.468;9.826;2023-07-31T15:02:15;19.90;99.90
44166;DHT22;30476;53.468;9.826;2023-07-31T15:04:41;19.80;99.90
44166;DHT22;30476;53.468;9.826;2023-07-31T15:07:07;19.80;99.90
44166;DHT22;30476;53.468;9.826;2023-07-31T15:09:33;19.80;99.90
44166;DHT22;30476;53.468;9.826;2023-07-31T15:11:59;19.90;99.90
44166;DHT22;30476;53.468;9.826;2023-07-31T15:14:25;19.90;99.90
44166;DHT22;30476;53.468;9.826;2023-07-31T15:16:53;19.90;99.90
44166;DHT22;30476;53.468;9.826;2023-07-31T15:19:18;19.90;99.90
44166;DHT22;30476;53.468;9.826;2023-07-31T15:21:44;19.90;99.90
44166;DHT22;30476;53.468;9.826;2023-07-31T15:24:10;19.80;99.90
44166;DHT22;30476;53.468;9.826;2023-07-31T15:26:37;19.90;99.90
44166;DHT22;30476;53.468;9.826;2023-07-31T15:29:05;19.80;99.90
44166;DHT22;30476;53.468;9.826;2023-07-31T15:31:43;19.80;99.90
44166;DHT22;30476;53.468;9.826;2023-07-31T15:34:09;19.80;99.90